createdAt,value
2024-01-08T00:00:41.802Z,15.52
2024-01-08T00:03:09.031Z,15.52
2024-01-08T00:05:40.692Z,15.52
2024-01-08T00:08:08.510Z,15.51
2024-01-08T00:10:39.469Z,15.52
2024-01-08T00:13:06.334Z,15.57
2024-01-08T00:15:33.573Z,15.56
2024-01-08T00:18:00.601Z,15.52
2024-01-08T00:20:27.625Z,15.51
2024-01-08T00:22:54.439Z,15.51
2024-01-08T00:25:23.182Z,15.50
2024-01-08T00:27:53.267Z,15.50
2024-01-08T00:30:20.470Z,15.49
2024-01-08T00:32:48.340Z,15.50
2024-01-08T00:35:15.760Z,15.49
2024-01-08T00:37:43.014Z,15.47
2024-01-08T00:40:11.119Z,15.47
2024-01-08T00:42:39.238Z,15.47
2024-01-08T00:45:07.005Z,15.47
2024-01-08T00:47:34.419Z,15.47
2024-01-08T00:50:02.766Z,15.47
2024-01-08T00:52:30.491Z,15.48
2024-01-08T00:55:02.973Z,15.48
2024-01-08T00:57:30.073Z,15.47
2024-01-08T00:59:56.753Z,15.47
2024-01-08T01:02:23.993Z,15.44
2024-01-08T01:04:51.131Z,15.42
2024-01-08T01:07:18.180Z,15.41
2024-01-08T01:09:45.016Z,15.40
2024-01-08T01:12:11.713Z,15.39
2024-01-08T01:14:38.463Z,15.40
2024-01-08T01:17:05.320Z,15.38
2024-01-08T01:19:32.049Z,15.40
2024-01-08T01:21:58.767Z,15.38
2024-01-08T01:24:25.794Z,15.40
2024-01-08T01:26:52.579Z,15.40
2024-01-08T01:29:19.321Z,15.38
2024-01-08T01:31:46.096Z,15.37
2024-01-08T01:34:13.705Z,15.38
2024-01-08T01:36:41.073Z,15.36
2024-01-08T01:39:08.208Z,15.35
2024-01-08T01:41:35.128Z,15.31
2024-01-08T01:44:02.019Z,15.29
2024-01-08T01:46:43.038Z,15.29
2024-01-08T01:49:20.184Z,15.36
2024-01-08T01:51:48.668Z,15.37
2024-01-08T01:54:17.499Z,15.36
2024-01-08T01:56:50.826Z,15.35
2024-01-08T01:59:19.185Z,15.37
2024-01-08T02:01:46.750Z,15.40
2024-01-08T02:04:18.388Z,15.41
2024-01-08T02:06:46.258Z,15.43
2024-01-08T02:09:17.638Z,15.43
2024-01-08T02:11:45.358Z,15.40
2024-01-08T02:14:13.827Z,15.39
2024-01-08T02:16:43.117Z,15.38
2024-01-08T02:19:10.453Z,15.38
2024-01-08T02:21:37.920Z,15.38
2024-01-08T02:24:05.834Z,15.38
2024-01-08T02:26:32.741Z,15.38
2024-01-08T02:28:59.596Z,15.38
2024-01-08T02:31:26.412Z,15.37
2024-01-08T02:33:53.162Z,15.35
2024-01-08T02:36:19.930Z,15.34
2024-01-08T02:38:47.164Z,15.33
2024-01-08T02:41:13.865Z,15.31
2024-01-08T02:43:40.698Z,15.30
2024-01-08T02:46:07.516Z,15.29
2024-01-08T02:48:34.333Z,15.30
2024-01-08T02:51:01.130Z,15.29
2024-01-08T02:53:28.005Z,15.31
2024-01-08T02:55:54.765Z,15.31
2024-01-08T02:58:21.581Z,15.31
2024-01-08T03:00:48.377Z,15.31
2024-01-08T03:03:15.209Z,15.30
2024-01-08T03:05:42.050Z,15.29
2024-01-08T03:08:08.862Z,15.28
2024-01-08T03:10:35.705Z,15.27
2024-01-08T03:13:02.510Z,15.25
2024-01-08T03:15:29.342Z,15.25
2024-01-08T03:17:56.095Z,15.26
2024-01-08T03:20:24.444Z,15.26
2024-01-08T03:22:53.246Z,15.28
2024-01-08T03:25:20.109Z,15.28
2024-01-08T03:27:46.889Z,15.26
2024-01-08T03:30:14.043Z,15.26
2024-01-08T03:32:41.031Z,15.27
2024-01-08T03:35:08.258Z,15.25
2024-01-08T03:37:35.618Z,15.24
2024-01-08T03:40:03.556Z,15.23
2024-01-08T03:42:30.415Z,15.22
2024-01-08T03:44:57.158Z,15.22
2024-01-08T03:47:24.029Z,15.22
2024-01-08T03:49:50.937Z,15.22
2024-01-08T03:52:17.993Z,15.23
2024-01-08T03:54:44.684Z,15.24
2024-01-08T03:57:11.479Z,15.23
2024-01-08T03:59:38.262Z,15.23
2024-01-08T04:02:05.357Z,15.23
2024-01-08T04:04:32.189Z,15.22
2024-01-08T04:06:59.044Z,15.20
2024-01-08T04:09:26.521Z,15.19
2024-01-08T04:11:53.525Z,15.17
2024-01-08T04:14:20.364Z,15.14
2024-01-08T04:16:47.076Z,15.13
2024-01-08T04:19:13.995Z,15.15
2024-01-08T04:21:40.813Z,15.15
2024-01-08T04:24:07.639Z,15.16
2024-01-08T04:26:34.481Z,15.16
2024-01-08T04:29:01.259Z,15.17
2024-01-08T04:31:29.866Z,15.17
2024-01-08T04:33:56.657Z,15.17
2024-01-08T04:36:23.539Z,15.17
2024-01-08T04:38:50.324Z,15.18
2024-01-08T04:41:21.217Z,15.18
2024-01-08T04:43:49.354Z,15.17
2024-01-08T04:46:16.085Z,15.13
2024-01-08T04:48:43.458Z,15.10
2024-01-08T04:51:21.054Z,15.05
2024-01-08T04:53:47.822Z,15.04
2024-01-08T04:56:25.220Z,15.03
2024-01-08T04:58:55.923Z,15.02
2024-01-08T05:01:23.595Z,15.01
2024-01-08T05:03:50.820Z,14.98
2024-01-08T05:06:17.987Z,14.98
2024-01-08T05:08:44.755Z,14.96
2024-01-08T05:11:12.324Z,14.96
2024-01-08T05:13:40.087Z,14.96
2024-01-08T05:16:07.652Z,14.97
2024-01-08T05:18:34.518Z,14.98
2024-01-08T05:21:01.349Z,14.98
2024-01-08T05:23:28.129Z,14.99
2024-01-08T05:25:54.998Z,14.99
2024-01-08T05:28:21.708Z,14.99
2024-01-08T05:30:48.497Z,14.98
2024-01-08T05:33:15.193Z,14.95
2024-01-08T05:35:42.402Z,14.93
2024-01-08T05:38:09.293Z,14.92
2024-01-08T05:40:36.038Z,14.91
2024-01-08T05:43:02.779Z,14.89
2024-01-08T05:45:29.609Z,14.88
2024-01-08T05:47:57.312Z,14.88
2024-01-08T05:50:27.010Z,14.86
2024-01-08T05:52:55.326Z,14.85
2024-01-08T05:55:23.133Z,14.86
2024-01-08T05:57:49.889Z,14.85
2024-01-08T06:00:17.629Z,14.84
2024-01-08T06:02:44.525Z,14.83
2024-01-08T06:05:15.645Z,14.84
2024-01-08T06:07:44.676Z,14.84
2024-01-08T06:10:11.540Z,14.82
2024-01-08T06:12:38.818Z,14.82
2024-01-08T06:15:06.675Z,14.81
2024-01-08T06:17:33.961Z,14.81
2024-01-08T06:20:00.937Z,14.81
2024-01-08T06:22:27.801Z,14.80
2024-01-08T06:24:54.545Z,14.80
2024-01-08T06:27:21.222Z,14.80
2024-01-08T06:29:48.005Z,14.81
2024-01-08T06:32:15.003Z,14.79
2024-01-08T06:34:41.856Z,14.81
2024-01-08T06:37:08.802Z,14.82
2024-01-08T06:39:35.547Z,14.85
2024-01-08T06:42:02.270Z,14.86
2024-01-08T06:44:29.095Z,14.90
2024-01-08T06:46:56.396Z,14.94
2024-01-08T06:49:23.310Z,14.95
2024-01-08T06:51:50.362Z,14.98
2024-01-08T06:54:17.509Z,14.99
2024-01-08T06:56:44.943Z,14.99
2024-01-08T06:59:12.132Z,15.00
2024-01-08T07:01:38.959Z,15.00
2024-01-08T07:04:05.867Z,14.98
2024-01-08T07:06:33.453Z,14.97
2024-01-08T07:09:00.409Z,14.94
2024-01-08T07:11:27.295Z,14.93
2024-01-08T07:13:54.250Z,14.93
2024-01-08T07:16:21.167Z,14.92
2024-01-08T07:18:48.200Z,14.91
2024-01-08T07:21:18.068Z,14.90
2024-01-08T07:23:46.483Z,14.91
2024-01-08T07:26:16.204Z,14.91
2024-01-08T07:28:47.139Z,14.90
2024-01-08T07:31:16.490Z,14.96
2024-01-08T07:33:43.538Z,14.97
2024-01-08T07:36:11.087Z,14.96
2024-01-08T07:38:38.370Z,14.95
2024-01-08T07:41:08.867Z,14.95
2024-01-08T07:43:39.073Z,14.94
2024-01-08T07:46:06.344Z,14.95
2024-01-08T07:48:33.548Z,14.97
2024-01-08T07:51:01.850Z,14.98
2024-01-08T07:53:28.784Z,14.96
2024-01-08T07:55:55.706Z,14.87
2024-01-08T07:58:28.471Z,14.77
2024-01-08T08:01:02.902Z,14.68
2024-01-08T08:03:30.272Z,14.59
2024-01-08T08:05:59.526Z,14.53
2024-01-08T08:08:27.244Z,14.46
2024-01-08T08:10:54.171Z,14.39
2024-01-08T08:13:21.003Z,14.35
2024-01-08T08:15:47.712Z,14.33
2024-01-08T08:18:14.806Z,14.32
2024-01-08T08:20:41.885Z,14.27
2024-01-08T08:23:08.780Z,14.27
2024-01-08T08:25:35.697Z,14.24
2024-01-08T08:28:03.463Z,14.19
2024-01-08T08:30:30.864Z,14.19
2024-01-08T08:33:00.266Z,14.18
2024-01-08T08:35:27.686Z,14.18
2024-01-08T08:37:55.170Z,14.17
2024-01-08T08:40:23.823Z,14.20
2024-01-08T08:42:51.189Z,14.27
2024-01-08T08:45:19.278Z,14.34
2024-01-08T08:47:46.814Z,14.38
2024-01-08T08:50:14.178Z,14.43
2024-01-08T08:52:41.129Z,14.47
2024-01-08T08:55:11.279Z,14.51
2024-01-08T08:57:38.908Z,14.54
2024-01-08T09:00:12.013Z,14.53
2024-01-08T09:02:40.144Z,14.47
2024-01-08T09:07:42.292Z,14.45
2024-01-08T09:10:09.439Z,14.49
2024-01-08T09:12:36.256Z,14.53
2024-01-08T09:15:03.931Z,14.57
2024-01-08T09:17:33.067Z,14.65
2024-01-08T09:19:59.947Z,14.72
2024-01-08T09:22:26.741Z,14.81
2024-01-08T09:24:53.697Z,14.86
2024-01-08T09:27:20.889Z,14.90
2024-01-08T09:29:47.778Z,14.94
2024-01-08T09:32:14.785Z,14.92
2024-01-08T09:34:42.239Z,14.89
2024-01-08T09:37:09.162Z,14.91
2024-01-08T09:39:36.782Z,14.97
2024-01-08T09:42:07.038Z,15.03
2024-01-08T09:44:36.887Z,15.12
2024-01-08T09:47:05.382Z,15.17
2024-01-08T09:49:34.702Z,15.18
2024-01-08T09:52:06.597Z,15.16
2024-01-08T09:54:34.969Z,15.15
2024-01-08T09:57:01.714Z,15.16
2024-01-08T09:59:29.336Z,15.17
2024-01-08T10:01:57.877Z,15.22
2024-01-08T10:04:27.853Z,15.28
2024-01-08T10:07:09.237Z,15.32
2024-01-08T10:09:36.932Z,15.40
2024-01-08T10:12:04.371Z,15.42
2024-01-08T10:14:31.751Z,15.40
2024-01-08T10:17:02.647Z,15.40
2024-01-08T10:19:30.873Z,15.43
2024-01-08T10:22:10.097Z,15.37
2024-01-08T10:24:39.666Z,15.35
2024-01-08T10:27:09.249Z,15.34
2024-01-08T10:29:42.260Z,15.36
2024-01-08T10:32:12.008Z,15.38
2024-01-08T10:34:40.139Z,15.41
2024-01-08T10:37:07.367Z,15.46
2024-01-08T10:39:44.572Z,15.51
2024-01-08T10:42:18.229Z,15.50
2024-01-08T10:44:45.141Z,15.42
2024-01-08T10:47:25.545Z,15.38
2024-01-08T10:49:58.268Z,15.45
2024-01-08T10:52:35.234Z,15.50
2024-01-08T10:55:04.066Z,15.50
2024-01-08T10:57:57.046Z,15.46
2024-01-08T11:00:24.381Z,15.43
2024-01-08T11:02:52.806Z,15.44
2024-01-08T11:05:22.941Z,15.49
2024-01-08T11:07:51.846Z,15.61
2024-01-08T11:10:23.148Z,15.74
2024-01-08T11:12:55.665Z,15.76
2024-01-08T11:15:27.358Z,15.71
2024-01-08T11:17:55.697Z,15.70
2024-01-08T11:20:42.629Z,15.68
2024-01-08T11:23:41.053Z,15.66
2024-01-08T11:26:15.344Z,15.69
2024-01-08T11:28:42.816Z,15.68
2024-01-08T11:31:52.517Z,15.64
2024-01-08T11:34:38.713Z,15.61
2024-01-08T11:37:14.428Z,15.64
2024-01-08T11:39:42.550Z,15.72
2024-01-08T11:42:10.173Z,15.72
2024-01-08T11:44:37.271Z,15.72
2024-01-08T11:47:04.956Z,15.73
2024-01-08T11:49:32.039Z,15.76
2024-01-08T11:52:02.065Z,15.80
2024-01-08T11:54:29.130Z,15.81
2024-01-08T11:56:56.765Z,15.80
2024-01-08T11:59:34.621Z,15.72
2024-01-08T12:02:30.920Z,15.61
2024-01-08T12:04:59.538Z,15.57
2024-01-08T12:07:28.290Z,15.55
2024-01-08T12:09:55.932Z,15.56
2024-01-08T12:12:26.473Z,15.57
2024-01-08T12:14:53.839Z,15.61
2024-01-08T12:17:21.082Z,15.68
2024-01-08T12:19:55.708Z,15.73
2024-01-08T12:22:25.077Z,15.74
2024-01-08T12:24:53.430Z,15.71
2024-01-08T12:27:24.409Z,15.64
2024-01-08T12:29:51.775Z,15.65
2024-01-08T12:32:21.175Z,15.65
2024-01-08T12:34:48.618Z,15.60
2024-01-08T12:37:17.691Z,15.57
2024-01-08T12:39:45.550Z,15.52
2024-01-08T12:42:16.244Z,15.41
2024-01-08T12:44:44.952Z,15.30
2024-01-08T12:47:12.420Z,15.24
2024-01-08T12:49:39.729Z,15.17
2024-01-08T12:52:10.225Z,15.15
2024-01-08T12:54:40.642Z,15.14
2024-01-08T12:57:08.007Z,15.14
2024-01-08T12:59:36.162Z,15.12
2024-01-08T13:02:04.464Z,15.12
2024-01-08T13:04:31.536Z,15.12
2024-01-08T13:06:58.570Z,15.11
2024-01-08T13:09:25.530Z,15.12
2024-01-08T13:11:52.717Z,15.12
2024-01-08T13:14:20.270Z,15.13
2024-01-08T13:16:49.334Z,15.12
2024-01-08T13:19:16.426Z,15.13
2024-01-08T13:21:43.678Z,15.16
2024-01-08T13:24:11.902Z,15.18
2024-01-08T13:26:39.968Z,15.19
2024-01-08T13:29:11.323Z,15.24
2024-01-08T13:31:40.199Z,15.28
2024-01-08T13:34:08.092Z,15.30
2024-01-08T13:36:36.098Z,15.27
2024-01-08T13:39:02.993Z,15.27
2024-01-08T13:41:31.954Z,15.29
2024-01-08T13:43:58.890Z,15.32
2024-01-08T13:46:26.076Z,15.34
2024-01-08T13:48:53.056Z,15.34
2024-01-08T13:51:20.114Z,15.29
2024-01-08T13:53:46.785Z,15.29
2024-01-08T13:56:13.561Z,15.38
2024-01-08T13:58:40.237Z,15.51
2024-01-08T14:01:07.726Z,15.64
2024-01-08T14:03:34.586Z,15.76
2024-01-08T14:06:01.500Z,15.85
2024-01-08T14:08:28.597Z,15.93
2024-01-08T14:10:55.482Z,15.99
2024-01-08T14:13:22.217Z,16.05
2024-01-08T14:15:48.938Z,16.11
2024-01-08T14:18:15.725Z,16.15
2024-01-08T14:20:42.535Z,16.19
2024-01-08T14:23:09.644Z,16.21
2024-01-08T14:25:36.543Z,16.26
2024-01-08T14:28:03.501Z,16.28
2024-01-08T14:30:30.267Z,16.31
2024-01-08T14:32:58.004Z,16.33
2024-01-08T14:35:24.989Z,16.35
2024-01-08T14:37:51.739Z,16.35
2024-01-08T14:40:28.094Z,16.36
2024-01-08T14:42:56.811Z,16.38
2024-01-08T14:45:23.736Z,16.38
2024-01-08T14:47:50.753Z,16.38
2024-01-08T14:50:20.272Z,16.38
2024-01-08T14:52:49.332Z,16.39
2024-01-08T14:55:16.167Z,16.40
2024-01-08T14:57:42.912Z,16.39
2024-01-08T15:00:11.460Z,16.38
2024-01-08T15:02:40.365Z,16.39
2024-01-08T15:05:08.079Z,16.38
2024-01-08T15:07:34.877Z,16.36
2024-01-08T15:10:02.528Z,16.36
2024-01-08T15:12:31.079Z,16.36
2024-01-08T15:14:57.858Z,16.35
2024-01-08T15:17:24.845Z,16.34
2024-01-08T15:19:52.632Z,16.33
2024-01-08T15:22:19.945Z,16.33
2024-01-08T15:24:46.777Z,16.32
2024-01-08T15:27:13.696Z,16.30
2024-01-08T15:29:40.962Z,16.29
2024-01-08T15:32:09.038Z,16.27
2024-01-08T15:34:35.909Z,16.28
2024-01-08T15:37:02.916Z,16.27
2024-01-08T15:39:29.694Z,16.25
2024-01-08T15:41:56.490Z,16.24
2024-01-08T15:44:23.257Z,16.22
2024-01-08T15:46:50.052Z,16.22
2024-01-08T15:49:16.833Z,16.20
2024-01-08T15:51:43.642Z,16.17
2024-01-08T15:54:10.352Z,16.16
2024-01-08T15:56:37.372Z,16.14
2024-01-08T15:59:04.201Z,16.11
2024-01-08T16:01:31.828Z,16.11
2024-01-08T16:03:58.821Z,16.09
2024-01-08T16:06:25.720Z,16.06
2024-01-08T16:08:52.723Z,16.03
2024-01-08T16:11:19.622Z,16.02
2024-01-08T16:13:46.737Z,15.98
2024-01-08T16:16:13.575Z,15.96
2024-01-08T16:18:41.807Z,15.93
2024-01-08T16:21:08.905Z,15.92
2024-01-08T16:23:36.309Z,15.90
2024-01-08T16:26:03.549Z,15.89
2024-01-08T16:28:30.335Z,15.87
2024-01-08T16:30:58.485Z,15.84
2024-01-08T16:33:25.468Z,15.83
2024-01-08T16:35:52.761Z,15.82
2024-01-08T16:38:20.167Z,15.80
2024-01-08T16:40:48.121Z,15.78
2024-01-08T16:43:15.802Z,15.76
2024-01-08T16:45:42.612Z,15.74
2024-01-08T16:48:09.462Z,15.72
2024-01-08T16:50:36.599Z,15.70
2024-01-08T16:53:04.420Z,15.70
2024-01-08T16:55:31.282Z,15.68
2024-01-08T16:57:58.153Z,15.65
2024-01-08T17:00:24.951Z,15.65
2024-01-08T17:02:51.828Z,15.64
2024-01-08T17:05:19.821Z,15.64
2024-01-08T17:07:46.623Z,15.64
2024-01-08T17:10:13.583Z,15.61
2024-01-08T17:12:40.249Z,15.59
2024-01-08T17:15:07.516Z,15.58
2024-01-08T17:17:35.495Z,15.56
2024-01-08T17:20:05.358Z,15.55
2024-01-08T17:22:32.512Z,15.54
2024-01-08T17:25:03.408Z,15.52
2024-01-08T17:27:30.986Z,15.55
2024-01-08T17:29:58.280Z,15.54
2024-01-08T17:32:25.343Z,15.49
2024-01-08T17:34:52.268Z,15.46
2024-01-08T17:37:19.925Z,15.44
2024-01-08T17:39:47.629Z,15.42
2024-01-08T17:42:15.120Z,15.39
2024-01-08T17:44:43.383Z,15.37
2024-01-08T17:47:10.604Z,15.35
2024-01-08T17:49:38.841Z,15.34
2024-01-08T17:52:06.721Z,15.32
2024-01-08T17:54:34.700Z,15.30
2024-01-08T17:57:01.903Z,15.29
2024-01-08T17:59:29.530Z,15.28
2024-01-08T18:01:56.393Z,15.26
2024-01-08T18:04:23.497Z,15.24
2024-01-08T18:06:50.624Z,15.23
2024-01-08T18:09:17.628Z,15.21
2024-01-08T18:11:45.723Z,15.19
2024-01-08T18:14:15.991Z,15.18
2024-01-08T18:16:44.939Z,15.16
2024-01-08T18:19:12.099Z,15.16
2024-01-08T18:21:42.383Z,15.15
2024-01-08T18:24:20.203Z,15.14
2024-01-08T18:26:54.798Z,15.13
2024-01-08T18:29:21.689Z,15.11
2024-01-08T18:31:48.621Z,15.09
2024-01-08T18:34:16.694Z,15.07
2024-01-08T18:36:44.173Z,15.05
2024-01-08T18:39:13.202Z,15.04
2024-01-08T18:41:40.463Z,15.03
2024-01-08T18:44:07.403Z,15.01
2024-01-08T18:46:34.306Z,14.99
2024-01-08T18:49:01.202Z,14.98
2024-01-08T18:51:28.449Z,14.96
2024-01-08T18:53:56.028Z,14.94
2024-01-08T18:56:22.956Z,14.94
2024-01-08T18:58:49.720Z,14.92
2024-01-08T19:01:17.629Z,14.90
2024-01-08T19:03:44.530Z,14.89
2024-01-08T19:06:11.593Z,14.89
2024-01-08T19:08:39.623Z,14.88
2024-01-08T19:11:06.568Z,14.87
2024-01-08T19:13:37.446Z,14.86
2024-01-08T19:16:06.392Z,14.85
2024-01-08T19:18:38.861Z,14.84
2024-01-08T19:21:06.337Z,14.84
2024-01-08T19:23:33.220Z,14.83
2024-01-08T19:26:01.505Z,14.81
2024-01-08T19:28:28.457Z,14.79
2024-01-08T19:30:56.114Z,14.78
2024-01-08T19:33:23.185Z,14.75
2024-01-08T19:35:50.231Z,14.75
2024-01-08T19:38:17.142Z,14.72
2024-01-08T19:40:43.905Z,14.70
2024-01-08T19:43:10.749Z,14.69
2024-01-08T19:45:37.773Z,14.68
2024-01-08T19:48:05.010Z,14.67
2024-01-08T19:50:31.899Z,14.65
2024-01-08T19:52:58.640Z,14.64
2024-01-08T19:55:25.330Z,14.63
2024-01-08T19:57:52.167Z,14.61
2024-01-08T20:00:19.170Z,14.60
2024-01-08T20:02:45.985Z,14.57
2024-01-08T20:05:12.974Z,14.55
2024-01-08T20:07:40.048Z,14.54
2024-01-08T20:10:07.248Z,14.51
2024-01-08T20:12:33.996Z,14.50
2024-01-08T20:15:00.793Z,14.49
2024-01-08T20:17:27.664Z,14.49
2024-01-08T20:19:57.748Z,14.47
2024-01-08T20:22:25.024Z,14.46
2024-01-08T20:24:52.363Z,14.45
2024-01-08T20:27:19.245Z,14.44
2024-01-08T20:29:46.849Z,14.43
2024-01-08T20:32:13.652Z,14.43
2024-01-08T20:34:40.422Z,14.43
2024-01-08T20:37:07.231Z,14.40
2024-01-08T20:39:34.089Z,14.40
2024-01-08T20:42:01.066Z,14.41
2024-01-08T20:44:28.844Z,14.40
2024-01-08T20:46:55.610Z,14.42
2024-01-08T20:49:27.867Z,14.41
2024-01-08T20:51:55.772Z,14.42
2024-01-08T20:54:23.174Z,14.41
2024-01-08T20:56:50.468Z,14.40
2024-01-08T20:59:17.453Z,14.38
2024-01-08T21:01:44.308Z,14.38
2024-01-08T21:04:11.276Z,14.38
2024-01-08T21:06:38.357Z,14.34
2024-01-08T21:09:06.088Z,14.33
2024-01-08T21:11:33.455Z,14.33
2024-01-08T21:14:00.254Z,14.31
2024-01-08T21:16:27.144Z,14.30
2024-01-08T21:18:55.300Z,14.30
2024-01-08T21:21:22.273Z,14.30
2024-01-08T21:23:49.142Z,14.29
2024-01-08T21:26:16.270Z,14.28
2024-01-08T21:28:43.544Z,14.26
2024-01-08T21:31:13.500Z,14.26
2024-01-08T21:33:42.105Z,14.27
2024-01-08T21:36:10.797Z,14.26
2024-01-08T21:38:41.245Z,14.24
2024-01-08T21:41:08.081Z,14.24
2024-01-08T21:43:35.362Z,14.24
2024-01-08T21:46:03.397Z,14.21
2024-01-08T21:48:31.505Z,14.21
2024-01-08T21:50:58.264Z,14.20
2024-01-08T21:53:25.273Z,14.20
2024-01-08T21:55:51.995Z,14.20
2024-01-08T21:58:18.824Z,14.19
2024-01-08T22:00:45.609Z,14.19
2024-01-08T22:03:12.460Z,14.19
2024-01-08T22:05:39.368Z,14.17
2024-01-08T22:08:06.303Z,14.18
2024-01-08T22:10:33.120Z,14.17
2024-01-08T22:12:59.894Z,14.16
2024-01-08T22:15:26.634Z,14.14
2024-01-08T22:17:53.402Z,14.14
2024-01-08T22:20:20.349Z,14.14
2024-01-08T22:22:48.156Z,14.13
2024-01-08T22:25:15.288Z,14.14
2024-01-08T22:27:42.899Z,14.15
2024-01-08T22:30:10.924Z,14.15
2024-01-08T22:32:38.080Z,14.15
2024-01-08T22:35:05.229Z,14.15
2024-01-08T22:37:32.416Z,14.14
2024-01-08T22:40:00.076Z,14.15
2024-01-08T22:42:29.880Z,14.15
2024-01-08T22:44:57.352Z,14.15
2024-01-08T22:47:24.370Z,14.15
2024-01-08T22:49:52.101Z,14.15
2024-01-08T22:52:19.090Z,14.14
2024-01-08T22:54:45.826Z,14.13
2024-01-08T22:57:12.666Z,14.14
2024-01-08T22:59:42.019Z,14.13
2024-01-08T23:02:08.935Z,14.14
2024-01-08T23:04:35.708Z,14.14
2024-01-08T23:07:02.548Z,14.13
2024-01-08T23:09:29.453Z,14.13
2024-01-08T23:11:56.399Z,14.13
2024-01-08T23:14:23.834Z,14.13
2024-01-08T23:16:51.419Z,14.15
2024-01-08T23:19:18.890Z,14.14
2024-01-08T23:21:45.692Z,14.14
2024-01-08T23:24:12.861Z,14.14
2024-01-08T23:26:44.264Z,14.12
2024-01-08T23:29:11.673Z,14.12
2024-01-08T23:31:38.524Z,14.11
2024-01-08T23:34:14.311Z,14.10
2024-01-08T23:36:47.405Z,14.12
2024-01-08T23:39:14.315Z,14.12
2024-01-08T23:41:41.169Z,14.10
2024-01-08T23:44:09.827Z,14.08
2024-01-08T23:46:37.620Z,14.08
2024-01-08T23:49:04.483Z,14.05
2024-01-08T23:51:31.335Z,14.04
2024-01-08T23:53:58.084Z,14.04
2024-01-08T23:56:24.894Z,14.01
2024-01-08T23:58:51.678Z,14.01
